Lincoln City, Oregon
Current Conditions -  °F | °C
As of 12:15 PM on Sunday 21 Dec 2014 (Local Time) from KONP Reporting Station
Drizzle Drizzle  
Wind Chill: 13°   Ceiling: 900
Heat Index: 13°   Visibility: 3mi
Dew Point: 12°   Wind: 10mph
Humidity: 94%   Direction: 250°WSW
Pressure: 30.16"   Gusts: 16mph
Location:  44.93°N, 124.01°W
Report Text: KONP 212015Z AUTO 25009G14KT 3SM -DZ BKN009 OVC012 13/12 A3016 RMK AO2
Loading
Personal Weather Stations






























Interactive Weather Map New forecast layout! Learn more

10-Day Weather Forecast

Advertisements
Track Severe Weather on mobile